sensor_id;sensor_type;location;lat;lon;timestamp;P1;durP1;ratioP1;P2;durP2;ratioP2
31537;SDS011;18147;51.952;6.146;2023-01-16T00:01:16;6.13;;;1.90;;
31537;SDS011;18147;51.952;6.146;2023-01-16T00:03:42;7.15;;;1.42;;
31537;SDS011;18147;51.952;6.146;2023-01-16T00:06:08;3.03;;;1.25;;
31537;SDS011;18147;51.952;6.146;2023-01-16T00:08:33;3.40;;;1.63;;
31537;SDS011;18147;51.952;6.146;2023-01-16T00:10:59;5.88;;;2.10;;
31537;SDS011;18147;51.952;6.146;2023-01-16T00:13:24;6.50;;;2.45;;
31537;SDS011;18147;51.952;6.146;2023-01-16T00:15:50;7.07;;;1.50;;
31537;SDS011;18147;51.952;6.146;2023-01-16T00:18:16;3.78;;;1.80;;
31537;SDS011;18147;51.952;6.146;2023-01-16T00:20:42;2.90;;;2.00;;
31537;SDS011;18147;51.952;6.146;2023-01-16T00:23:11;7.13;;;1.85;;
31537;SDS011;18147;51.952;6.146;2023-01-16T00:25:40;4.03;;;1.67;;
31537;SDS011;18147;51.952;6.146;2023-01-16T00:28:09;5.10;;;2.08;;
31537;SDS011;18147;51.952;6.146;2023-01-16T00:30:36;3.22;;;2.40;;
31537;SDS011;18147;51.952;6.146;2023-01-16T00:33:02;4.35;;;2.58;;
31537;SDS011;18147;51.952;6.146;2023-01-16T00:35:27;6.35;;;3.22;;
31537;SDS011;18147;51.952;6.146;2023-01-16T00:37:53;6.03;;;3.40;;
31537;SDS011;18147;51.952;6.146;2023-01-16T00:40:18;7.25;;;3.58;;
31537;SDS011;18147;51.952;6.146;2023-01-16T00:42:44;11.00;;;5.65;;
31537;SDS011;18147;51.952;6.146;2023-01-16T00:45:10;8.88;;;4.68;;
31537;SDS011;18147;51.952;6.146;2023-01-16T00:47:36;8.27;;;4.80;;
31537;SDS011;18147;51.952;6.146;2023-01-16T00:50:01;10.57;;;5.53;;
31537;SDS011;18147;51.952;6.146;2023-01-16T00:52:27;10.95;;;6.55;;
31537;SDS011;18147;51.952;6.146;2023-01-16T00:54:52;12.55;;;6.43;;
31537;SDS011;18147;51.952;6.146;2023-01-16T00:57:18;7.63;;;4.88;;
31537;SDS011;18147;51.952;6.146;2023-01-16T00:59:43;8.00;;;4.47;;
31537;SDS011;18147;51.952;6.146;2023-01-16T01:02:09;6.70;;;4.20;;
31537;SDS011;18147;51.952;6.146;2023-01-16T01:04:34;9.52;;;4.82;;
31537;SDS011;18147;51.952;6.146;2023-01-16T01:07:00;8.55;;;5.10;;
31537;SDS011;18147;51.952;6.146;2023-01-16T01:09:25;9.48;;;5.55;;
31537;SDS011;18147;51.952;6.146;2023-01-16T01:11:51;7.85;;;5.15;;
31537;SDS011;18147;51.952;6.146;2023-01-16T01:14:16;9.40;;;5.97;;
31537;SDS011;18147;51.952;6.146;2023-01-16T01:16:42;10.90;;;5.50;;
31537;SDS011;18147;51.952;6.146;2023-01-16T01:19:07;9.00;;;5.55;;
31537;SDS011;18147;51.952;6.146;2023-01-16T01:21:33;10.60;;;6.05;;
31537;SDS011;18147;51.952;6.146;2023-01-16T01:23:58;11.15;;;6.28;;
31537;SDS011;18147;51.952;6.146;2023-01-16T01:26:23;10.55;;;5.38;;
31537;SDS011;18147;51.952;6.146;2023-01-16T01:28:49;11.50;;;5.85;;
31537;SDS011;18147;51.952;6.146;2023-01-16T01:31:15;8.93;;;4.22;;
31537;SDS011;18147;51.952;6.146;2023-01-16T01:33:40;10.45;;;5.53;;
31537;SDS011;18147;51.952;6.146;2023-01-16T01:36:07;14.10;;;5.25;;
31537;SDS011;18147;51.952;6.146;2023-01-16T01:38:33;11.07;;;4.30;;
31537;SDS011;18147;51.952;6.146;2023-01-16T01:40:59;7.18;;;3.88;;
31537;SDS011;18147;51.952;6.146;2023-01-16T01:43:42;6.78;;;3.67;;
31537;SDS011;18147;51.952;6.146;2023-01-16T01:46:14;6.55;;;3.95;;
31537;SDS011;18147;51.952;6.146;2023-01-16T01:49:00;5.55;;;3.88;;
31537;SDS011;18147;51.952;6.146;2023-01-16T01:51:33;13.27;;;3.42;;
31537;SDS011;18147;51.952;6.146;2023-01-16T01:54:03;8.95;;;5.00;;
31537;SDS011;18147;51.952;6.146;2023-01-16T01:59:17;8.73;;;4.53;;
31537;SDS011;18147;51.952;6.146;2023-01-16T02:01:48;11.65;;;3.85;;
31537;SDS011;18147;51.952;6.146;2023-01-16T02:04:18;11.55;;;3.45;;
31537;SDS011;18147;51.952;6.146;2023-01-16T02:06:50;12.77;;;4.47;;
31537;SDS011;18147;51.952;6.146;2023-01-16T02:09:18;13.93;;;4.32;;
31537;SDS011;18147;51.952;6.146;2023-01-16T02:11:50;11.00;;;3.20;;
31537;SDS011;18147;51.952;6.146;2023-01-16T02:14:19;9.10;;;3.47;;
31537;SDS011;18147;51.952;6.146;2023-01-16T02:16:47;9.50;;;2.83;;
31537;SDS011;18147;51.952;6.146;2023-01-16T02:19:58;14.80;;;4.35;;
31537;SDS011;18147;51.952;6.146;2023-01-16T02:22:38;11.32;;;3.17;;
31537;SDS011;18147;51.952;6.146;2023-01-16T02:36:59;13.75;;;4.00;;
31537;SDS011;18147;51.952;6.146;2023-01-16T02:39:38;12.70;;;4.50;;
31537;SDS011;18147;51.952;6.146;2023-01-16T02:42:23;6.77;;;3.00;;
31537;SDS011;18147;51.952;6.146;2023-01-16T02:47:57;15.63;;;2.83;;
31537;SDS011;18147;51.952;6.146;2023-01-16T02:56:07;7.25;;;2.60;;
31537;SDS011;18147;51.952;6.146;2023-01-16T02:58:39;7.60;;;2.30;;
31537;SDS011;18147;51.952;6.146;2023-01-16T03:01:08;10.25;;;3.10;;
31537;SDS011;18147;51.952;6.146;2023-01-16T03:06:17;12.30;;;4.80;;
31537;SDS011;18147;51.952;6.146;2023-01-16T03:09:02;9.45;;;2.33;;
31537;SDS011;18147;51.952;6.146;2023-01-16T03:17:02;8.57;;;2.08;;
31537;SDS011;18147;51.952;6.146;2023-01-16T03:19:40;16.52;;;2.30;;
31537;SDS011;18147;51.952;6.146;2023-01-16T03:22:15;7.00;;;2.13;;
31537;SDS011;18147;51.952;6.146;2023-01-16T03:30:14;8.18;;;1.77;;
31537;SDS011;18147;51.952;6.146;2023-01-16T03:33:14;11.57;;;2.40;;
31537;SDS011;18147;51.952;6.146;2023-01-16T03:35:49;13.07;;;1.80;;
31537;SDS011;18147;51.952;6.146;2023-01-16T03:38:20;13.63;;;2.35;;
31537;SDS011;18147;51.952;6.146;2023-01-16T03:40:49;5.57;;;2.25;;
31537;SDS011;18147;51.952;6.146;2023-01-16T03:43:20;9.93;;;2.10;;
31537;SDS011;18147;51.952;6.146;2023-01-16T03:51:04;7.85;;;2.13;;
31537;SDS011;18147;51.952;6.146;2023-01-16T03:53:33;9.55;;;2.03;;
31537;SDS011;18147;51.952;6.146;2023-01-16T03:56:10;6.55;;;2.50;;
31537;SDS011;18147;51.952;6.146;2023-01-16T03:58:41;9.10;;;2.42;;
31537;SDS011;18147;51.952;6.146;2023-01-16T04:04:15;9.00;;;2.70;;
31537;SDS011;18147;51.952;6.146;2023-01-16T04:09:36;7.93;;;2.08;;
31537;SDS011;18147;51.952;6.146;2023-01-16T04:12:06;11.48;;;2.30;;
31537;SDS011;18147;51.952;6.146;2023-01-16T04:14:34;9.05;;;2.13;;
31537;SDS011;18147;51.952;6.146;2023-01-16T04:17:01;4.47;;;2.05;;
31537;SDS011;18147;51.952;6.146;2023-01-16T04:19:28;16.83;;;2.65;;
31537;SDS011;18147;51.952;6.146;2023-01-16T04:21:57;10.00;;;2.72;;
31537;SDS011;18147;51.952;6.146;2023-01-16T04:24:22;11.93;;;3.58;;
31537;SDS011;18147;51.952;6.146;2023-01-16T04:26:48;15.75;;;3.10;;
31537;SDS011;18147;51.952;6.146;2023-01-16T04:29:16;7.85;;;2.33;;
31537;SDS011;18147;51.952;6.146;2023-01-16T04:31:41;7.45;;;2.25;;
31537;SDS011;18147;51.952;6.146;2023-01-16T04:34:07;11.32;;;2.92;;
31537;SDS011;18147;51.952;6.146;2023-01-16T04:36:32;12.30;;;2.97;;
31537;SDS011;18147;51.952;6.146;2023-01-16T04:38:58;6.65;;;2.67;;
31537;SDS011;18147;51.952;6.146;2023-01-16T04:41:24;4.53;;;2.08;;
31537;SDS011;18147;51.952;6.146;2023-01-16T04:44:05;8.02;;;2.35;;
31537;SDS011;18147;51.952;6.146;2023-01-16T04:46:32;13.52;;;3.05;;
31537;SDS011;18147;51.952;6.146;2023-01-16T04:48:58;10.90;;;3.20;;
31537;SDS011;18147;51.952;6.146;2023-01-16T04:51:23;13.13;;;3.03;;
31537;SDS011;18147;51.952;6.146;2023-01-16T04:53:49;8.15;;;2.30;;
31537;SDS011;18147;51.952;6.146;2023-01-16T04:56:15;6.97;;;2.10;;
31537;SDS011;18147;51.952;6.146;2023-01-16T04:58:40;7.50;;;2.22;;
31537;SDS011;18147;51.952;6.146;2023-01-16T05:01:06;9.50;;;2.75;;
31537;SDS011;18147;51.952;6.146;2023-01-16T05:03:31;9.15;;;2.50;;
31537;SDS011;18147;51.952;6.146;2023-01-16T05:05:57;7.72;;;1.83;;
31537;SDS011;18147;51.952;6.146;2023-01-16T05:08:23;6.00;;;1.90;;
31537;SDS011;18147;51.952;6.146;2023-01-16T05:10:52;8.02;;;2.33;;
31537;SDS011;18147;51.952;6.146;2023-01-16T05:13:19;17.75;;;2.58;;
31537;SDS011;18147;51.952;6.146;2023-01-16T05:15:45;10.68;;;2.35;;
31537;SDS011;18147;51.952;6.146;2023-01-16T05:18:10;11.63;;;2.67;;
31537;SDS011;18147;51.952;6.146;2023-01-16T05:20:37;8.38;;;1.83;;
31537;SDS011;18147;51.952;6.146;2023-01-16T05:23:03;7.43;;;2.67;;
31537;SDS011;18147;51.952;6.146;2023-01-16T05:25:28;14.90;;;3.00;;
31537;SDS011;18147;51.952;6.146;2023-01-16T05:27:54;7.05;;;2.65;;
31537;SDS011;18147;51.952;6.146;2023-01-16T05:30:19;7.97;;;1.83;;
31537;SDS011;18147;51.952;6.146;2023-01-16T05:32:45;2.65;;;1.70;;
31537;SDS011;18147;51.952;6.146;2023-01-16T05:35:11;13.02;;;2.28;;
31537;SDS011;18147;51.952;6.146;2023-01-16T05:37:37;9.98;;;3.05;;
31537;SDS011;18147;51.952;6.146;2023-01-16T05:40:02;7.47;;;2.00;;
31537;SDS011;18147;51.952;6.146;2023-01-16T05:42:28;11.20;;;2.40;;
31537;SDS011;18147;51.952;6.146;2023-01-16T05:44:53;5.72;;;1.70;;
31537;SDS011;18147;51.952;6.146;2023-01-16T05:47:20;3.33;;;1.52;;
31537;SDS011;18147;51.952;6.146;2023-01-16T05:49:46;6.28;;;2.17;;
31537;SDS011;18147;51.952;6.146;2023-01-16T05:52:12;3.55;;;1.45;;
31537;SDS011;18147;51.952;6.146;2023-01-16T05:54:38;8.05;;;1.55;;
31537;SDS011;18147;51.952;6.146;2023-01-16T05:57:04;6.38;;;1.73;;
31537;SDS011;18147;51.952;6.146;2023-01-16T05:59:31;7.72;;;1.80;;
31537;SDS011;18147;51.952;6.146;2023-01-16T06:01:57;11.18;;;1.50;;
31537;SDS011;18147;51.952;6.146;2023-01-16T06:04:23;5.38;;;1.50;;
31537;SDS011;18147;51.952;6.146;2023-01-16T06:06:49;8.90;;;1.42;;
31537;SDS011;18147;51.952;6.146;2023-01-16T06:09:15;9.48;;;1.63;;
31537;SDS011;18147;51.952;6.146;2023-01-16T06:11:40;5.03;;;1.45;;
31537;SDS011;18147;51.952;6.146;2023-01-16T06:14:06;4.55;;;1.17;;
31537;SDS011;18147;51.952;6.146;2023-01-16T06:16:32;4.82;;;1.35;;
31537;SDS011;18147;51.952;6.146;2023-01-16T06:18:58;8.13;;;1.30;;
31537;SDS011;18147;51.952;6.146;2023-01-16T06:21:23;5.57;;;1.20;;
31537;SDS011;18147;51.952;6.146;2023-01-16T06:23:49;4.75;;;1.52;;
31537;SDS011;18147;51.952;6.146;2023-01-16T06:26:14;3.78;;;1.45;;
31537;SDS011;18147;51.952;6.146;2023-01-16T06:28:40;9.90;;;2.00;;
31537;SDS011;18147;51.952;6.146;2023-01-16T06:31:05;7.40;;;2.40;;
31537;SDS011;18147;51.952;6.146;2023-01-16T06:33:31;5.65;;;1.80;;
31537;SDS011;18147;51.952;6.146;2023-01-16T06:35:56;14.25;;;2.67;;
31537;SDS011;18147;51.952;6.146;2023-01-16T06:38:22;11.77;;;2.65;;
31537;SDS011;18147;51.952;6.146;2023-01-16T06:40:48;5.50;;;2.20;;
31537;SDS011;18147;51.952;6.146;2023-01-16T06:43:13;7.53;;;2.50;;
31537;SDS011;18147;51.952;6.146;2023-01-16T06:45:41;10.45;;;3.00;;
31537;SDS011;18147;51.952;6.146;2023-01-16T06:48:07;6.43;;;2.80;;
31537;SDS011;18147;51.952;6.146;2023-01-16T06:50:33;9.88;;;3.55;;
31537;SDS011;18147;51.952;6.146;2023-01-16T06:52:58;9.48;;;3.30;;
31537;SDS011;18147;51.952;6.146;2023-01-16T06:55:24;17.85;;;3.92;;
31537;SDS011;18147;51.952;6.146;2023-01-16T06:57:49;18.45;;;3.63;;
31537;SDS011;18147;51.952;6.146;2023-01-16T07:00:15;7.13;;;3.03;;
31537;SDS011;18147;51.952;6.146;2023-01-16T07:02:41;6.95;;;2.92;;
31537;SDS011;18147;51.952;6.146;2023-01-16T07:05:07;7.50;;;3.15;;
31537;SDS011;18147;51.952;6.146;2023-01-16T07:07:34;7.30;;;3.15;;
31537;SDS011;18147;51.952;6.146;2023-01-16T07:10:00;8.50;;;2.83;;
31537;SDS011;18147;51.952;6.146;2023-01-16T07:12:26;11.18;;;3.20;;
31537;SDS011;18147;51.952;6.146;2023-01-16T07:14:52;10.23;;;3.58;;
31537;SDS011;18147;51.952;6.146;2023-01-16T07:17:36;11.07;;;3.30;;
31537;SDS011;18147;51.952;6.146;2023-01-16T07:20:20;11.15;;;3.30;;
31537;SDS011;18147;51.952;6.146;2023-01-16T07:23:11;9.32;;;3.38;;
31537;SDS011;18147;51.952;6.146;2023-01-16T07:25:41;7.70;;;4.65;;
31537;SDS011;18147;51.952;6.146;2023-01-16T07:28:07;8.23;;;3.55;;
31537;SDS011;18147;51.952;6.146;2023-01-16T07:30:33;6.82;;;2.97;;
31537;SDS011;18147;51.952;6.146;2023-01-16T07:32:58;5.47;;;2.65;;
31537;SDS011;18147;51.952;6.146;2023-01-16T07:35:24;9.73;;;2.63;;
31537;SDS011;18147;51.952;6.146;2023-01-16T07:37:49;7.15;;;2.92;;
31537;SDS011;18147;51.952;6.146;2023-01-16T07:40:16;6.97;;;3.25;;
31537;SDS011;18147;51.952;6.146;2023-01-16T07:42:42;7.53;;;1.85;;
31537;SDS011;18147;51.952;6.146;2023-01-16T07:45:08;5.72;;;2.65;;
31537;SDS011;18147;51.952;6.146;2023-01-16T07:47:34;3.78;;;2.28;;
31537;SDS011;18147;51.952;6.146;2023-01-16T07:50:00;4.53;;;2.40;;
31537;SDS011;18147;51.952;6.146;2023-01-16T07:52:26;11.18;;;2.50;;
31537;SDS011;18147;51.952;6.146;2023-01-16T07:54:51;15.57;;;3.30;;
31537;SDS011;18147;51.952;6.146;2023-01-16T07:57:17;3.78;;;1.92;;
31537;SDS011;18147;51.952;6.146;2023-01-16T07:59:42;3.15;;;1.70;;
31537;SDS011;18147;51.952;6.146;2023-01-16T08:02:08;6.22;;;2.13;;
31537;SDS011;18147;51.952;6.146;2023-01-16T08:04:35;3.25;;;1.30;;
31537;SDS011;18147;51.952;6.146;2023-01-16T08:07:00;3.85;;;1.80;;
31537;SDS011;18147;51.952;6.146;2023-01-16T08:09:26;3.40;;;1.50;;
31537;SDS011;18147;51.952;6.146;2023-01-16T08:11:51;4.80;;;1.88;;
31537;SDS011;18147;51.952;6.146;2023-01-16T08:14:17;5.25;;;1.90;;
31537;SDS011;18147;51.952;6.146;2023-01-16T08:16:42;7.72;;;1.98;;
31537;SDS011;18147;51.952;6.146;2023-01-16T08:19:08;5.00;;;1.65;;
31537;SDS011;18147;51.952;6.146;2023-01-16T08:21:33;5.07;;;1.10;;
31537;SDS011;18147;51.952;6.146;2023-01-16T08:23:59;2.55;;;1.42;;
31537;SDS011;18147;51.952;6.146;2023-01-16T08:26:24;8.10;;;1.60;;
31537;SDS011;18147;51.952;6.146;2023-01-16T08:28:49;5.10;;;1.40;;
31537;SDS011;18147;51.952;6.146;2023-01-16T08:31:17;6.53;;;2.00;;
31537;SDS011;18147;51.952;6.146;2023-01-16T08:33:43;7.22;;;1.67;;
31537;SDS011;18147;51.952;6.146;2023-01-16T08:36:09;6.47;;;1.85;;
31537;SDS011;18147;51.952;6.146;2023-01-16T08:38:36;7.57;;;2.40;;
31537;SDS011;18147;51.952;6.146;2023-01-16T08:41:02;4.90;;;1.70;;
31537;SDS011;18147;51.952;6.146;2023-01-16T08:43:28;4.85;;;1.83;;
31537;SDS011;18147;51.952;6.146;2023-01-16T08:49:04;1.95;;;1.85;;
31537;SDS011;18147;51.952;6.146;2023-01-16T08:51:52;5.57;;;1.83;;
31537;SDS011;18147;51.952;6.146;2023-01-16T08:54:18;4.78;;;1.55;;
31537;SDS011;18147;51.952;6.146;2023-01-16T08:56:43;5.35;;;1.85;;
31537;SDS011;18147;51.952;6.146;2023-01-16T08:59:09;5.80;;;1.73;;
31537;SDS011;18147;51.952;6.146;2023-01-16T09:01:36;7.45;;;2.05;;
31537;SDS011;18147;51.952;6.146;2023-01-16T09:04:03;4.88;;;1.88;;
31537;SDS011;18147;51.952;6.146;2023-01-16T09:06:29;6.00;;;2.15;;
31537;SDS011;18147;51.952;6.146;2023-01-16T09:08:55;5.75;;;2.10;;
31537;SDS011;18147;51.952;6.146;2023-01-16T09:11:20;6.22;;;2.30;;
31537;SDS011;18147;51.952;6.146;2023-01-16T09:14:04;4.00;;;2.22;;
31537;SDS011;18147;51.952;6.146;2023-01-16T09:16:30;6.90;;;2.50;;
31537;SDS011;18147;51.952;6.146;2023-01-16T09:18:55;6.25;;;2.05;;
31537;SDS011;18147;51.952;6.146;2023-01-16T09:21:21;4.15;;;1.65;;
31537;SDS011;18147;51.952;6.146;2023-01-16T09:23:49;4.20;;;2.03;;
31537;SDS011;18147;51.952;6.146;2023-01-16T09:26:15;4.70;;;2.60;;
31537;SDS011;18147;51.952;6.146;2023-01-16T09:28:41;4.15;;;2.47;;
31537;SDS011;18147;51.952;6.146;2023-01-16T09:31:06;7.15;;;2.72;;
31537;SDS011;18147;51.952;6.146;2023-01-16T09:33:31;7.07;;;2.80;;
31537;SDS011;18147;51.952;6.146;2023-01-16T09:35:57;13.02;;;2.70;;
31537;SDS011;18147;51.952;6.146;2023-01-16T09:38:22;8.98;;;2.35;;
31537;SDS011;18147;51.952;6.146;2023-01-16T09:40:51;4.55;;;2.35;;
31537;SDS011;18147;51.952;6.146;2023-01-16T09:43:38;5.07;;;2.10;;
31537;SDS011;18147;51.952;6.146;2023-01-16T09:48:36;6.80;;;2.97;;
31537;SDS011;18147;51.952;6.146;2023-01-16T09:51:13;3.47;;;2.20;;
31537;SDS011;18147;51.952;6.146;2023-01-16T09:53:51;6.43;;;2.22;;
31537;SDS011;18147;51.952;6.146;2023-01-16T09:56:58;5.97;;;2.30;;
31537;SDS011;18147;51.952;6.146;2023-01-16T10:02:24;5.85;;;1.95;;
31537;SDS011;18147;51.952;6.146;2023-01-16T10:04:52;4.68;;;2.30;;
31537;SDS011;18147;51.952;6.146;2023-01-16T10:07:27;5.28;;;2.28;;
31537;SDS011;18147;51.952;6.146;2023-01-16T10:26:08;7.22;;;2.22;;
31537;SDS011;18147;51.952;6.146;2023-01-16T10:31:15;5.07;;;2.35;;
31537;SDS011;18147;51.952;6.146;2023-01-16T10:34:05;2.97;;;1.77;;
31537;SDS011;18147;51.952;6.146;2023-01-16T10:36:56;3.40;;;1.90;;
31537;SDS011;18147;51.952;6.146;2023-01-16T10:39:24;6.40;;;1.95;;
31537;SDS011;18147;51.952;6.146;2023-01-16T10:42:00;2.50;;;1.60;;
31537;SDS011;18147;51.952;6.146;2023-01-16T10:44:56;1.80;;;1.55;;
31537;SDS011;18147;51.952;6.146;2023-01-16T10:47:45;3.22;;;1.85;;
31537;SDS011;18147;51.952;6.146;2023-01-16T10:50:29;3.00;;;1.90;;
31537;SDS011;18147;51.952;6.146;2023-01-16T10:52:55;4.18;;;1.70;;
31537;SDS011;18147;51.952;6.146;2023-01-16T10:55:21;3.67;;;1.73;;
31537;SDS011;18147;51.952;6.146;2023-01-16T10:57:55;9.30;;;1.48;;
31537;SDS011;18147;51.952;6.146;2023-01-16T11:00:24;7.05;;;2.20;;
31537;SDS011;18147;51.952;6.146;2023-01-16T11:02:58;5.05;;;1.90;;
31537;SDS011;18147;51.952;6.146;2023-01-16T11:05:32;2.92;;;2.08;;
31537;SDS011;18147;51.952;6.146;2023-01-16T11:10:38;3.13;;;1.55;;
31537;SDS011;18147;51.952;6.146;2023-01-16T11:13:05;9.15;;;2.63;;
31537;SDS011;18147;51.952;6.146;2023-01-16T11:16:00;4.95;;;2.30;;
31537;SDS011;18147;51.952;6.146;2023-01-16T11:19:21;1.98;;;1.15;;
31537;SDS011;18147;51.952;6.146;2023-01-16T11:21:52;4.03;;;1.20;;
31537;SDS011;18147;51.952;6.146;2023-01-16T11:24:21;2.28;;;1.30;;
31537;SDS011;18147;51.952;6.146;2023-01-16T11:26:52;4.75;;;1.67;;
31537;SDS011;18147;51.952;6.146;2023-01-16T11:29:20;3.42;;;1.30;;
31537;SDS011;18147;51.952;6.146;2023-01-16T11:31:53;9.40;;;1.58;;
31537;SDS011;18147;51.952;6.146;2023-01-16T11:34:21;2.13;;;1.92;;
31537;SDS011;18147;51.952;6.146;2023-01-16T11:36:53;1.33;;;1.20;;
31537;SDS011;18147;51.952;6.146;2023-01-16T11:39:21;3.88;;;1.48;;
31537;SDS011;18147;51.952;6.146;2023-01-16T11:41:51;1.92;;;1.00;;
31537;SDS011;18147;51.952;6.146;2023-01-16T11:44:21;1.33;;;1.13;;
31537;SDS011;18147;51.952;6.146;2023-01-16T11:47:12;1.55;;;1.08;;
31537;SDS011;18147;51.952;6.146;2023-01-16T11:49:46;0.98;;;0.93;;
31537;SDS011;18147;51.952;6.146;2023-01-16T11:52:17;1.27;;;1.05;;
31537;SDS011;18147;51.952;6.146;2023-01-16T12:02:43;3.17;;;1.20;;
31537;SDS011;18147;51.952;6.146;2023-01-16T12:11:08;3.15;;;1.00;;
31537;SDS011;18147;51.952;6.146;2023-01-16T12:13:48;3.28;;;1.13;;
31537;SDS011;18147;51.952;6.146;2023-01-16T12:30:27;3.53;;;1.08;;
31537;SDS011;18147;51.952;6.146;2023-01-16T12:33:01;1.23;;;0.85;;
31537;SDS011;18147;51.952;6.146;2023-01-16T12:35:41;3.15;;;1.10;;
31537;SDS011;18147;51.952;6.146;2023-01-16T12:38:15;2.17;;;0.70;;
31537;SDS011;18147;51.952;6.146;2023-01-16T12:43:47;3.50;;;0.93;;
31537;SDS011;18147;51.952;6.146;2023-01-16T12:49:27;1.98;;;1.25;;
31537;SDS011;18147;51.952;6.146;2023-01-16T12:52:13;6.20;;;0.80;;
31537;SDS011;18147;51.952;6.146;2023-01-16T12:55:12;0.60;;;0.60;;
31537;SDS011;18147;51.952;6.146;2023-01-16T13:03:58;1.23;;;0.77;;
31537;SDS011;18147;51.952;6.146;2023-01-16T13:07:07;3.08;;;0.82;;
31537;SDS011;18147;51.952;6.146;2023-01-16T13:09:25;0.73;;;0.70;;
31537;SDS011;18147;51.952;6.146;2023-01-16T13:12:16;1.52;;;0.73;;
31537;SDS011;18147;51.952;6.146;2023-01-16T13:15:29;2.33;;;0.90;;
31537;SDS011;18147;51.952;6.146;2023-01-16T13:17:58;2.25;;;1.17;;
31537;SDS011;18147;51.952;6.146;2023-01-16T13:20:31;1.20;;;0.80;;
31537;SDS011;18147;51.952;6.146;2023-01-16T13:23:04;7.78;;;1.15;;
31537;SDS011;18147;51.952;6.146;2023-01-16T13:25:37;1.27;;;1.00;;
31537;SDS011;18147;51.952;6.146;2023-01-16T13:28:10;1.20;;;1.10;;
31537;SDS011;18147;51.952;6.146;2023-01-16T13:30:48;0.57;;;0.57;;
31537;SDS011;18147;51.952;6.146;2023-01-16T13:33:19;1.10;;;1.00;;
31537;SDS011;18147;51.952;6.146;2023-01-16T13:41:45;3.03;;;1.00;;
31537;SDS011;18147;51.952;6.146;2023-01-16T13:44:20;1.73;;;1.00;;
31537;SDS011;18147;51.952;6.146;2023-01-16T13:47:13;1.15;;;0.80;;
31537;SDS011;18147;51.952;6.146;2023-01-16T13:49:44;2.92;;;0.85;;
31537;SDS011;18147;51.952;6.146;2023-01-16T13:52:16;1.35;;;0.82;;
31537;SDS011;18147;51.952;6.146;2023-01-16T13:54:45;2.72;;;1.45;;
31537;SDS011;18147;51.952;6.146;2023-01-16T14:05:18;0.80;;;0.80;;
31537;SDS011;18147;51.952;6.146;2023-01-16T14:08:04;1.35;;;1.08;;
31537;SDS011;18147;51.952;6.146;2023-01-16T14:13:39;2.83;;;1.55;;
31537;SDS011;18147;51.952;6.146;2023-01-16T14:24:03;4.97;;;2.05;;
31537;SDS011;18147;51.952;6.146;2023-01-16T14:26:45;15.15;;;3.72;;
31537;SDS011;18147;51.952;6.146;2023-01-16T14:34:26;4.00;;;1.40;;
31537;SDS011;18147;51.952;6.146;2023-01-16T14:36:55;5.00;;;1.52;;
31537;SDS011;18147;51.952;6.146;2023-01-16T14:39:34;1.60;;;1.50;;
31537;SDS011;18147;51.952;6.146;2023-01-16T14:48:12;3.45;;;1.70;;
31537;SDS011;18147;51.952;6.146;2023-01-16T14:51:00;2.67;;;1.30;;
31537;SDS011;18147;51.952;6.146;2023-01-16T14:54:14;2.67;;;1.58;;
31537;SDS011;18147;51.952;6.146;2023-01-16T14:59:37;3.42;;;1.67;;
31537;SDS011;18147;51.952;6.146;2023-01-16T15:02:17;3.67;;;2.05;;
31537;SDS011;18147;51.952;6.146;2023-01-16T15:07:45;2.05;;;1.80;;
31537;SDS011;18147;51.952;6.146;2023-01-16T15:10:25;2.08;;;1.88;;
31537;SDS011;18147;51.952;6.146;2023-01-16T15:13:15;3.13;;;2.03;;
31537;SDS011;18147;51.952;6.146;2023-01-16T15:16:04;5.82;;;2.45;;
31537;SDS011;18147;51.952;6.146;2023-01-16T15:18:39;3.08;;;2.00;;
31537;SDS011;18147;51.952;6.146;2023-01-16T15:21:26;4.93;;;1.80;;
31537;SDS011;18147;51.952;6.146;2023-01-16T15:24:12;6.10;;;1.98;;
31537;SDS011;18147;51.952;6.146;2023-01-16T15:26:47;2.75;;;1.88;;
31537;SDS011;18147;51.952;6.146;2023-01-16T15:29:25;2.92;;;1.95;;
31537;SDS011;18147;51.952;6.146;2023-01-16T15:32:00;6.70;;;2.30;;
31537;SDS011;18147;51.952;6.146;2023-01-16T15:34:29;2.58;;;1.80;;
31537;SDS011;18147;51.952;6.146;2023-01-16T15:36:56;3.70;;;2.20;;
31537;SDS011;18147;51.952;6.146;2023-01-16T15:39:24;2.55;;;2.00;;
31537;SDS011;18147;51.952;6.146;2023-01-16T15:44:57;7.50;;;2.80;;
31537;SDS011;18147;51.952;6.146;2023-01-16T15:50:20;4.53;;;2.20;;
31537;SDS011;18147;51.952;6.146;2023-01-16T15:52:49;9.27;;;2.55;;
31537;SDS011;18147;51.952;6.146;2023-01-16T15:57:43;3.55;;;3.00;;
31537;SDS011;18147;51.952;6.146;2023-01-16T16:00:22;5.55;;;2.78;;
31537;SDS011;18147;51.952;6.146;2023-01-16T16:03:20;6.82;;;3.53;;
31537;SDS011;18147;51.952;6.146;2023-01-16T16:05:50;4.90;;;3.17;;
31537;SDS011;18147;51.952;6.146;2023-01-16T16:08:23;4.63;;;3.55;;
31537;SDS011;18147;51.952;6.146;2023-01-16T16:10:54;4.82;;;3.00;;
31537;SDS011;18147;51.952;6.146;2023-01-16T16:13:40;4.72;;;3.00;;
31537;SDS011;18147;51.952;6.146;2023-01-16T16:16:16;3.92;;;3.35;;
31537;SDS011;18147;51.952;6.146;2023-01-16T16:19:09;4.28;;;2.78;;
31537;SDS011;18147;51.952;6.146;2023-01-16T16:21:44;1.75;;;1.65;;
31537;SDS011;18147;51.952;6.146;2023-01-16T16:24:31;3.45;;;1.40;;
31537;SDS011;18147;51.952;6.146;2023-01-16T16:26:58;3.22;;;1.63;;
31537;SDS011;18147;51.952;6.146;2023-01-16T16:29:31;3.60;;;1.50;;
31537;SDS011;18147;51.952;6.146;2023-01-16T16:32:00;2.08;;;1.67;;
31537;SDS011;18147;51.952;6.146;2023-01-16T16:34:27;2.17;;;1.50;;
31537;SDS011;18147;51.952;6.146;2023-01-16T16:36:56;4.93;;;1.80;;
31537;SDS011;18147;51.952;6.146;2023-01-16T16:41:54;2.42;;;2.22;;
31537;SDS011;18147;51.952;6.146;2023-01-16T16:44:42;2.70;;;1.90;;
31537;SDS011;18147;51.952;6.146;2023-01-16T16:47:27;1.60;;;1.45;;
31537;SDS011;18147;51.952;6.146;2023-01-16T16:49:54;3.35;;;1.77;;
31537;SDS011;18147;51.952;6.146;2023-01-16T16:52:21;2.00;;;1.80;;
31537;SDS011;18147;51.952;6.146;2023-01-16T16:55:00;2.22;;;1.40;;
31537;SDS011;18147;51.952;6.146;2023-01-16T16:57:29;1.65;;;1.35;;
31537;SDS011;18147;51.952;6.146;2023-01-16T17:00:06;2.47;;;1.67;;
31537;SDS011;18147;51.952;6.146;2023-01-16T17:02:38;1.83;;;1.45;;
31537;SDS011;18147;51.952;6.146;2023-01-16T17:05:04;2.35;;;1.70;;
31537;SDS011;18147;51.952;6.146;2023-01-16T17:07:29;2.50;;;1.65;;
31537;SDS011;18147;51.952;6.146;2023-01-16T17:09:55;1.25;;;1.15;;
31537;SDS011;18147;51.952;6.146;2023-01-16T17:12:24;1.35;;;1.25;;
31537;SDS011;18147;51.952;6.146;2023-01-16T17:14:49;1.88;;;1.40;;
31537;SDS011;18147;51.952;6.146;2023-01-16T17:17:16;3.42;;;1.40;;
31537;SDS011;18147;51.952;6.146;2023-01-16T17:19:43;1.42;;;1.15;;
31537;SDS011;18147;51.952;6.146;2023-01-16T17:22:10;5.93;;;1.65;;
31537;SDS011;18147;51.952;6.146;2023-01-16T17:24:36;3.58;;;1.60;;
31537;SDS011;18147;51.952;6.146;2023-01-16T17:27:02;2.55;;;1.70;;
31537;SDS011;18147;51.952;6.146;2023-01-16T17:29:32;2.30;;;1.98;;
31537;SDS011;18147;51.952;6.146;2023-01-16T17:31:59;3.42;;;2.78;;
31537;SDS011;18147;51.952;6.146;2023-01-16T17:34:29;2.83;;;2.10;;
31537;SDS011;18147;51.952;6.146;2023-01-16T17:36:55;2.33;;;2.13;;
31537;SDS011;18147;51.952;6.146;2023-01-16T17:39:20;3.78;;;2.70;;
31537;SDS011;18147;51.952;6.146;2023-01-16T17:41:46;3.00;;;2.70;;
31537;SDS011;18147;51.952;6.146;2023-01-16T17:44:18;3.15;;;2.45;;
31537;SDS011;18147;51.952;6.146;2023-01-16T17:47:06;5.10;;;3.53;;
31537;SDS011;18147;51.952;6.146;2023-01-16T17:49:33;7.50;;;4.35;;
31537;SDS011;18147;51.952;6.146;2023-01-16T17:52:21;5.60;;;4.40;;
31537;SDS011;18147;51.952;6.146;2023-01-16T17:54:47;6.75;;;3.95;;
31537;SDS011;18147;51.952;6.146;2023-01-16T17:57:31;6.95;;;4.57;;
31537;SDS011;18147;51.952;6.146;2023-01-16T17:59:57;6.80;;;5.22;;